createdAt,value
2022-12-08T00:00:07.885Z,6.47
2022-12-08T00:02:34.820Z,6.39
2022-12-08T00:05:20.373Z,6.45
2022-12-08T00:08:06.140Z,6.51
2022-12-08T00:10:48.984Z,6.47
2022-12-08T00:13:16.673Z,6.50
2022-12-08T00:15:43.706Z,6.38
2022-12-08T00:18:10.573Z,6.39
2022-12-08T00:20:37.433Z,6.35
2022-12-08T00:23:04.589Z,6.45
2022-12-08T00:25:32.350Z,6.37
2022-12-08T00:27:59.163Z,6.45
2022-12-08T00:30:26.083Z,6.45
2022-12-08T00:32:53.010Z,6.47
2022-12-08T00:35:19.838Z,6.41
2022-12-08T00:37:46.953Z,6.44
2022-12-08T00:40:13.992Z,6.40
2022-12-08T00:42:40.802Z,6.30
2022-12-08T00:45:08.088Z,6.32
2022-12-08T00:47:35.031Z,6.35
2022-12-08T00:50:02.425Z,6.28
2022-12-08T00:52:29.645Z,6.28
2022-12-08T00:54:56.651Z,6.35
2022-12-08T00:57:23.589Z,6.30
2022-12-08T00:59:50.402Z,6.28
2022-12-08T01:02:17.221Z,6.40
2022-12-08T01:04:44.107Z,6.43
2022-12-08T01:07:11.028Z,6.34
2022-12-08T01:09:38.046Z,6.34
2022-12-08T01:12:05.782Z,6.30
2022-12-08T01:14:33.800Z,6.33
2022-12-08T01:17:01.065Z,6.41
2022-12-08T01:19:27.956Z,6.33
2022-12-08T01:21:55.151Z,6.31
2022-12-08T01:24:22.146Z,6.38
2022-12-08T01:26:50.480Z,6.24
2022-12-08T01:29:18.100Z,6.14
2022-12-08T01:31:45.281Z,6.25
2022-12-08T01:34:12.553Z,6.23
2022-12-08T01:36:39.663Z,6.23
2022-12-08T01:39:10.694Z,6.29
2022-12-08T01:41:38.795Z,6.33
2022-12-08T01:44:08.947Z,6.25
2022-12-08T01:46:38.974Z,6.28
2022-12-08T01:49:12.715Z,6.31
2022-12-08T01:51:44.154Z,6.36
2022-12-08T01:54:13.093Z,6.26
2022-12-08T01:57:04.657Z,6.33
2022-12-08T01:59:34.574Z,6.29
2022-12-08T02:02:01.720Z,6.27
2022-12-08T02:04:28.662Z,6.21
2022-12-08T02:06:55.943Z,6.08
2022-12-08T02:09:22.920Z,6.05
2022-12-08T02:11:51.416Z,6.04
2022-12-08T02:14:18.397Z,6.08
2022-12-08T02:16:54.320Z,6.16
2022-12-08T02:19:36.169Z,6.21
2022-12-08T02:22:11.820Z,6.15
2022-12-08T02:24:57.001Z,6.21
2022-12-08T02:27:37.504Z,6.30
2022-12-08T02:30:22.586Z,6.42
2022-12-08T02:33:09.854Z,6.33
2022-12-08T02:35:58.899Z,6.29
2022-12-08T02:38:55.777Z,6.32
2022-12-08T02:41:37.757Z,6.24
2022-12-08T02:44:27.053Z,6.16
2022-12-08T02:47:10.169Z,6.28
2022-12-08T02:49:37.217Z,6.30
2022-12-08T02:52:07.816Z,6.42
2022-12-08T02:54:36.585Z,6.29
2022-12-08T02:57:22.894Z,6.30
2022-12-08T03:00:06.686Z,6.35
2022-12-08T03:03:06.075Z,6.35
2022-12-08T03:05:58.183Z,6.22
2022-12-08T03:08:34.995Z,6.22
2022-12-08T03:11:09.829Z,6.28
2022-12-08T03:13:42.520Z,6.32
2022-12-08T03:16:14.302Z,6.23
2022-12-08T03:18:47.885Z,6.24
2022-12-08T03:21:16.683Z,6.23
2022-12-08T03:23:46.528Z,6.20
2022-12-08T03:26:23.221Z,6.28
2022-12-08T03:28:50.292Z,6.44
2022-12-08T03:31:20.037Z,6.45
2022-12-08T03:33:51.928Z,6.38
2022-12-08T03:36:19.785Z,6.43
2022-12-08T03:38:50.523Z,6.34
2022-12-08T03:41:20.140Z,6.47
2022-12-08T03:43:53.452Z,6.42
2022-12-08T03:48:48.454Z,6.44
2022-12-08T03:51:16.163Z,6.45
2022-12-08T03:53:43.532Z,6.51
2022-12-08T03:56:23.662Z,6.59
2022-12-08T03:58:50.739Z,6.44
2022-12-08T04:01:17.663Z,6.47
2022-12-08T04:03:44.564Z,6.39
2022-12-08T04:06:11.702Z,6.37
2022-12-08T04:08:38.918Z,6.34
2022-12-08T04:11:06.774Z,6.31
2022-12-08T04:13:38.567Z,6.21
2022-12-08T04:16:06.675Z,6.30
2022-12-08T04:18:34.370Z,6.34
2022-12-08T04:21:01.870Z,6.43
2022-12-08T04:23:28.656Z,6.39
2022-12-08T04:25:55.586Z,6.18
2022-12-08T04:28:22.551Z,6.42
2022-12-08T04:30:50.151Z,6.46
2022-12-08T04:33:17.666Z,6.40
2022-12-08T04:35:44.772Z,6.42
2022-12-08T04:38:11.678Z,6.59
2022-12-08T04:40:38.622Z,6.49
2022-12-08T04:43:05.671Z,6.46
2022-12-08T04:45:32.945Z,6.44
2022-12-08T04:48:01.114Z,6.40
2022-12-08T04:50:28.611Z,6.34
2022-12-08T04:52:55.515Z,6.37
2022-12-08T04:55:22.525Z,6.44
2022-12-08T04:57:49.415Z,6.31
2022-12-08T05:00:16.973Z,6.34
2022-12-08T05:02:43.857Z,6.45
2022-12-08T05:05:10.892Z,6.40
2022-12-08T05:07:37.983Z,6.40
2022-12-08T05:10:05.710Z,6.41
2022-12-08T05:12:33.404Z,6.44
2022-12-08T05:15:00.280Z,6.43
2022-12-08T05:17:27.060Z,6.44
2022-12-08T05:19:53.964Z,6.42
2022-12-08T05:22:20.786Z,6.43
2022-12-08T05:24:48.029Z,6.40
2022-12-08T05:27:15.385Z,6.35
2022-12-08T05:29:42.556Z,6.35
2022-12-08T05:32:09.657Z,6.30
2022-12-08T05:34:36.637Z,6.28
2022-12-08T05:37:03.519Z,6.30
2022-12-08T05:39:30.380Z,6.32
2022-12-08T05:41:57.293Z,6.36
2022-12-08T05:44:24.410Z,6.37
2022-12-08T05:46:51.561Z,6.42
2022-12-08T05:49:18.678Z,6.48
2022-12-08T05:51:45.519Z,6.46
2022-12-08T05:54:12.332Z,6.45
2022-12-08T05:56:39.265Z,6.47
2022-12-08T05:59:07.244Z,6.50
2022-12-08T06:01:34.125Z,6.57
2022-12-08T06:04:02.863Z,6.62
2022-12-08T06:06:31.073Z,6.59
2022-12-08T06:08:57.933Z,6.54
2022-12-08T06:11:28.133Z,6.61
2022-12-08T06:13:56.823Z,6.66
2022-12-08T06:16:25.210Z,6.65
2022-12-08T06:18:52.948Z,6.52
2022-12-08T06:21:20.269Z,6.59
2022-12-08T06:23:52.203Z,6.69
2022-12-08T06:26:19.767Z,6.68
2022-12-08T06:28:47.243Z,6.73
2022-12-08T06:31:17.769Z,6.52
2022-12-08T06:33:45.342Z,6.63
2022-12-08T06:36:14.602Z,6.72
2022-12-08T06:38:43.820Z,6.73
2022-12-08T06:41:12.229Z,6.75
2022-12-08T06:43:39.600Z,6.77
2022-12-08T06:46:08.602Z,6.63
2022-12-08T06:48:35.621Z,6.63
2022-12-08T06:51:15.138Z,6.77
2022-12-08T06:53:42.923Z,6.89
2022-12-08T06:56:11.477Z,6.91
2022-12-08T06:58:38.955Z,6.94
2022-12-08T07:01:11.799Z,7.07
2022-12-08T07:03:39.580Z,7.10
2022-12-08T07:06:06.961Z,7.08
2022-12-08T07:08:35.155Z,7.21
2022-12-08T07:11:14.195Z,7.38
2022-12-08T07:13:43.597Z,7.35
2022-12-08T07:16:12.359Z,7.38
2022-12-08T07:18:39.830Z,7.60
2022-12-08T07:21:11.974Z,7.65
2022-12-08T07:23:39.423Z,7.74
2022-12-08T07:26:08.522Z,7.67
2022-12-08T07:28:37.308Z,7.66
2022-12-08T07:31:05.785Z,7.72
2022-12-08T07:33:35.494Z,7.65
2022-12-08T07:36:05.155Z,7.78
2022-12-08T07:38:32.837Z,7.91
2022-12-08T07:41:02.164Z,7.78
2022-12-08T07:43:29.245Z,7.74
2022-12-08T07:45:56.130Z,7.84
2022-12-08T07:48:23.036Z,7.93
2022-12-08T07:50:50.525Z,8.11
2022-12-08T07:53:17.404Z,7.91
2022-12-08T07:55:44.952Z,7.94
2022-12-08T07:58:12.084Z,8.02
2022-12-08T08:00:39.045Z,8.08
2022-12-08T08:03:06.440Z,8.23
2022-12-08T08:05:33.579Z,8.35
2022-12-08T08:08:01.633Z,8.43
2022-12-08T08:10:28.628Z,8.29
2022-12-08T08:12:59.216Z,8.57
2022-12-08T08:15:26.288Z,8.76
2022-12-08T08:17:53.624Z,8.70
2022-12-08T08:20:21.326Z,8.74
2022-12-08T08:22:50.281Z,8.68
2022-12-08T08:25:19.003Z,8.77
2022-12-08T08:27:46.979Z,8.61
2022-12-08T08:30:20.019Z,8.50
2022-12-08T08:32:48.109Z,8.42
2022-12-08T08:35:15.100Z,8.35
2022-12-08T08:37:48.369Z,8.58
2022-12-08T08:40:16.273Z,8.77
2022-12-08T08:42:43.171Z,8.91
2022-12-08T08:45:10.462Z,8.86
2022-12-08T08:47:37.429Z,8.79
2022-12-08T08:50:04.920Z,8.78
2022-12-08T08:52:32.059Z,8.49
2022-12-08T08:54:58.979Z,8.84
2022-12-08T08:57:26.403Z,9.08
2022-12-08T08:59:54.049Z,9.36
2022-12-08T09:02:22.456Z,9.79
2022-12-08T09:04:49.611Z,9.71
2022-12-08T09:07:18.732Z,9.64
2022-12-08T09:09:45.690Z,10.02
2022-12-08T09:12:13.173Z,9.86
2022-12-08T09:14:40.533Z,9.83
2022-12-08T09:17:07.791Z,10.02
2022-12-08T09:19:35.219Z,9.92
2022-12-08T09:22:02.089Z,9.66
2022-12-08T09:24:29.189Z,9.61
2022-12-08T09:26:56.170Z,9.22
2022-12-08T09:29:23.229Z,9.27
2022-12-08T09:31:50.378Z,9.09
2022-12-08T09:34:17.559Z,9.30
2022-12-08T09:36:44.380Z,9.24
2022-12-08T09:39:11.221Z,9.36
2022-12-08T09:41:50.289Z,9.47
2022-12-08T09:44:44.652Z,9.30
2022-12-08T09:47:17.976Z,9.62
2022-12-08T09:50:02.376Z,9.81
2022-12-08T09:52:41.177Z,9.80
2022-12-08T09:55:25.361Z,9.90
2022-12-08T09:58:00.926Z,10.01
2022-12-08T10:00:27.801Z,10.04
2022-12-08T10:02:56.670Z,10.06
2022-12-08T10:05:25.922Z,10.18
2022-12-08T10:08:10.503Z,10.18
2022-12-08T10:10:48.519Z,10.27
2022-12-08T10:13:37.250Z,10.31
2022-12-08T10:16:24.247Z,10.41
2022-12-08T10:19:10.111Z,10.33
2022-12-08T10:21:37.451Z,10.37
2022-12-08T10:24:12.877Z,10.53
2022-12-08T10:26:40.381Z,10.71
2022-12-08T10:29:12.639Z,10.68
2022-12-08T10:31:39.679Z,10.57
2022-12-08T10:34:23.356Z,10.65
2022-12-08T10:36:52.137Z,10.22
2022-12-08T10:39:34.349Z,10.22
2022-12-08T10:42:17.625Z,10.24
2022-12-08T10:45:13.256Z,10.33
2022-12-08T10:47:45.098Z,10.30
2022-12-08T10:50:20.854Z,10.19
2022-12-08T10:53:00.975Z,9.94
2022-12-08T10:55:29.544Z,10.18
2022-12-08T10:57:56.631Z,10.05
2022-12-08T11:00:28.402Z,10.25
2022-12-08T11:03:05.427Z,10.40
2022-12-08T11:05:35.739Z,10.41
2022-12-08T11:08:05.084Z,10.31
2022-12-08T11:10:42.546Z,10.34
2022-12-08T11:13:22.981Z,10.35
2022-12-08T11:15:52.285Z,10.10
2022-12-08T11:18:30.823Z,10.26
2022-12-08T11:21:18.249Z,10.39
2022-12-08T11:23:50.143Z,10.40
2022-12-08T11:26:35.823Z,10.39
2022-12-08T11:29:02.785Z,10.34
2022-12-08T11:31:35.288Z,10.23
2022-12-08T11:34:03.552Z,10.13
2022-12-08T11:36:33.858Z,10.16
2022-12-08T11:39:04.703Z,10.16
2022-12-08T11:41:39.824Z,10.13
2022-12-08T11:44:21.861Z,9.99
2022-12-08T11:46:56.679Z,10.16
2022-12-08T11:49:34.814Z,10.15
2022-12-08T11:52:12.429Z,10.19
2022-12-08T11:55:18.323Z,10.12
2022-12-08T11:57:46.148Z,10.23
2022-12-08T12:00:16.720Z,10.16
2022-12-08T12:02:51.997Z,10.18
2022-12-08T12:06:05.360Z,10.12
2022-12-08T12:09:07.013Z,10.10
2022-12-08T12:11:58.293Z,10.01
2022-12-08T12:14:59.115Z,9.95
2022-12-08T12:17:44.217Z,9.88
2022-12-08T12:20:29.316Z,9.90
2022-12-08T12:23:03.831Z,9.83
2022-12-08T12:25:32.617Z,9.60
2022-12-08T12:28:05.437Z,9.66
2022-12-08T12:30:54.251Z,9.59
2022-12-08T12:33:22.868Z,9.65
2022-12-08T12:35:49.962Z,9.64
2022-12-08T12:38:57.854Z,9.61
2022-12-08T12:41:43.282Z,9.60
2022-12-08T12:44:10.312Z,9.63
2022-12-08T12:46:37.328Z,9.55
2022-12-08T12:49:41.079Z,9.58
2022-12-08T12:52:16.850Z,9.59
2022-12-08T12:54:50.065Z,9.57
2022-12-08T12:57:19.721Z,9.55
2022-12-08T12:59:55.474Z,9.53
2022-12-08T13:02:33.322Z,9.59
2022-12-08T13:05:21.282Z,9.59
2022-12-08T13:08:02.319Z,9.57
2022-12-08T13:10:38.851Z,9.53
2022-12-08T13:13:18.252Z,9.50
2022-12-08T13:15:54.112Z,9.52
2022-12-08T13:18:28.854Z,9.43
2022-12-08T13:21:01.277Z,9.38
2022-12-08T13:23:40.174Z,9.06
2022-12-08T13:26:23.833Z,9.07
2022-12-08T13:29:26.145Z,9.08
2022-12-08T13:31:58.301Z,9.10
2022-12-08T13:34:30.394Z,9.16
2022-12-08T13:37:23.272Z,9.02
2022-12-08T13:39:52.021Z,9.09
2022-12-08T13:42:27.916Z,9.10
2022-12-08T13:48:36.717Z,9.17
2022-12-08T13:53:22.357Z,9.18
2022-12-08T13:57:11.514Z,9.07
2022-12-08T13:59:45.471Z,9.09
2022-12-08T14:02:33.249Z,9.15
2022-12-08T14:05:18.547Z,9.19
2022-12-08T14:07:52.080Z,9.27
2022-12-08T14:10:32.465Z,9.34
2022-12-08T14:13:06.491Z,9.48
2022-12-08T14:15:38.140Z,9.50
2022-12-08T14:18:07.024Z,9.50
2022-12-08T14:21:12.078Z,9.57
2022-12-08T14:23:25.463Z,9.56
2022-12-08T14:25:52.739Z,9.59
2022-12-08T14:28:20.343Z,9.44
2022-12-08T14:30:49.956Z,9.55
2022-12-08T14:33:18.726Z,9.48
2022-12-08T14:35:54.499Z,9.55
2022-12-08T14:38:23.043Z,9.38
2022-12-08T14:41:01.874Z,9.36
2022-12-08T14:43:30.491Z,9.48
2022-12-08T14:46:21.537Z,9.55
2022-12-08T14:48:48.591Z,9.53
2022-12-08T14:51:26.694Z,9.54
2022-12-08T14:56:53.528Z,9.48
2022-12-08T14:59:23.139Z,9.36
2022-12-08T15:01:52.974Z,9.42
2022-12-08T15:04:25.768Z,9.37
2022-12-08T15:07:14.908Z,9.36
2022-12-08T15:09:44.690Z,9.35
2022-12-08T15:12:14.521Z,9.36
2022-12-08T15:14:56.752Z,9.36
2022-12-08T15:17:49.269Z,9.33
2022-12-08T15:20:28.784Z,9.31
2022-12-08T15:23:00.209Z,9.23
2022-12-08T15:25:27.029Z,9.31
2022-12-08T15:27:54.758Z,9.32
2022-12-08T15:30:21.652Z,9.31
2022-12-08T15:32:52.371Z,9.29
2022-12-08T15:35:19.373Z,9.28
2022-12-08T15:37:46.709Z,9.32
2022-12-08T15:40:21.904Z,9.30
2022-12-08T15:42:49.638Z,9.26
2022-12-08T15:45:17.423Z,9.24
2022-12-08T15:47:45.609Z,9.21
2022-12-08T15:50:18.402Z,9.21
2022-12-08T15:52:45.501Z,9.22
2022-12-08T15:55:18.480Z,9.20
2022-12-08T16:00:54.518Z,9.29
2022-12-08T16:09:19.473Z,9.22
2022-12-08T16:12:07.609Z,9.32
2022-12-08T16:17:22.556Z,9.26
2022-12-08T16:19:49.839Z,9.24
2022-12-08T16:25:23.194Z,9.29
2022-12-08T16:28:02.934Z,9.31
2022-12-08T16:30:32.053Z,9.36
2022-12-08T16:32:59.641Z,9.34
2022-12-08T16:35:26.524Z,9.38
2022-12-08T16:37:53.646Z,9.41
2022-12-08T16:40:20.611Z,9.41
2022-12-08T16:42:50.181Z,9.39
2022-12-08T16:45:23.508Z,9.37
2022-12-08T16:47:53.489Z,9.40
2022-12-08T16:50:23.615Z,9.40
2022-12-08T16:53:00.022Z,9.17
2022-12-08T16:55:27.510Z,8.99
2022-12-08T16:57:54.774Z,9.01
2022-12-08T17:00:24.918Z,8.87
2022-12-08T17:02:52.511Z,8.91
2022-12-08T17:05:23.328Z,9.00
2022-12-08T17:07:51.924Z,9.08
2022-12-08T17:10:23.112Z,9.12
2022-12-08T17:12:52.080Z,9.16
2022-12-08T17:15:21.804Z,9.20
2022-12-08T17:17:48.647Z,9.24
2022-12-08T17:20:22.327Z,9.26
2022-12-08T17:22:49.807Z,9.18
2022-12-08T17:25:16.778Z,9.18
2022-12-08T17:27:43.708Z,9.26
2022-12-08T17:30:15.793Z,9.31
2022-12-08T17:32:43.282Z,9.33
2022-12-08T17:35:10.731Z,9.24
2022-12-08T17:37:38.736Z,9.13
2022-12-08T17:40:06.719Z,9.16
2022-12-08T17:42:33.715Z,9.08
2022-12-08T17:45:00.571Z,9.20
2022-12-08T17:47:27.421Z,9.23
2022-12-08T17:49:56.162Z,9.21
2022-12-08T17:52:23.105Z,9.21
2022-12-08T17:54:50.097Z,9.17
2022-12-08T17:57:16.966Z,9.15
2022-12-08T17:59:43.858Z,9.01
2022-12-08T18:02:12.215Z,9.05
2022-12-08T18:04:39.177Z,9.10
2022-12-08T18:07:21.359Z,8.85
2022-12-08T18:09:55.497Z,8.83
2022-12-08T18:12:26.928Z,8.91
2022-12-08T18:14:53.952Z,8.93
2022-12-08T18:17:21.155Z,8.97
2022-12-08T18:19:48.042Z,8.98
2022-12-08T18:22:16.196Z,8.91
2022-12-08T18:24:44.685Z,8.90
2022-12-08T18:27:11.769Z,8.93
2022-12-08T18:29:38.912Z,8.88
2022-12-08T18:32:06.376Z,8.84
2022-12-08T18:34:34.200Z,8.72
2022-12-08T18:37:01.437Z,8.66
2022-12-08T18:39:31.082Z,8.69
2022-12-08T18:44:35.809Z,8.65
2022-12-08T18:47:02.839Z,8.50
2022-12-08T18:49:29.615Z,8.38
2022-12-08T18:51:56.917Z,8.27
2022-12-08T18:54:37.228Z,8.30
2022-12-08T18:57:10.974Z,8.31
2022-12-08T18:59:38.129Z,8.17
2022-12-08T19:02:05.103Z,8.08
2022-12-08T19:04:37.227Z,8.08
2022-12-08T19:07:06.374Z,8.05
2022-12-08T19:09:33.553Z,8.04
2022-12-08T19:12:00.462Z,8.05
2022-12-08T19:14:30.374Z,7.95
2022-12-08T19:16:58.456Z,8.03
2022-12-08T19:19:26.634Z,8.05
2022-12-08T19:21:54.015Z,8.09
2022-12-08T19:24:21.413Z,8.16
2022-12-08T19:29:24.242Z,8.26
2022-12-08T19:31:51.539Z,8.29
2022-12-08T19:34:19.064Z,8.29
2022-12-08T19:36:46.280Z,8.23
2022-12-08T19:39:40.369Z,8.22
2022-12-08T19:42:37.687Z,8.25
2022-12-08T19:45:12.630Z,8.29
2022-12-08T19:47:40.353Z,8.25
2022-12-08T19:50:27.744Z,8.32
2022-12-08T19:52:56.471Z,8.18
2022-12-08T19:55:24.827Z,8.24
2022-12-08T19:57:53.160Z,8.08
2022-12-08T20:00:21.791Z,8.16
2022-12-08T20:02:48.880Z,8.28
2022-12-08T20:05:16.602Z,8.19
2022-12-08T20:07:44.114Z,8.23
2022-12-08T20:10:23.300Z,8.36
2022-12-08T20:12:50.487Z,8.32
2022-12-08T20:15:17.780Z,8.29
2022-12-08T20:17:44.852Z,8.29
2022-12-08T20:20:13.349Z,8.36
2022-12-08T20:22:42.055Z,8.28
2022-12-08T20:25:13.038Z,8.41
2022-12-08T20:27:40.569Z,8.41
2022-12-08T20:30:13.338Z,8.47
2022-12-08T20:32:43.717Z,8.51
2022-12-08T20:35:10.575Z,8.52
2022-12-08T20:37:38.072Z,8.34
2022-12-08T20:40:06.753Z,8.32
2022-12-08T20:42:33.746Z,8.33
2022-12-08T20:45:00.955Z,8.21
2022-12-08T20:47:28.104Z,8.15
2022-12-08T20:49:55.139Z,8.20
2022-12-08T20:52:22.471Z,8.31
2022-12-08T20:54:49.972Z,8.32
2022-12-08T20:57:16.858Z,8.34
2022-12-08T20:59:43.917Z,8.30
2022-12-08T21:02:11.859Z,8.25
2022-12-08T21:04:39.129Z,8.24
2022-12-08T21:07:06.430Z,8.21
2022-12-08T21:09:33.526Z,8.17
2022-12-08T21:12:00.506Z,8.20
2022-12-08T21:14:27.615Z,8.18
2022-12-08T21:16:55.149Z,8.17
2022-12-08T21:19:22.786Z,8.21
2022-12-08T21:21:51.262Z,8.22
2022-12-08T21:24:19.370Z,8.27
2022-12-08T21:26:46.506Z,8.28
2022-12-08T21:29:13.749Z,8.25
2022-12-08T21:31:41.222Z,8.30
2022-12-08T21:34:08.609Z,8.34
2022-12-08T21:36:35.788Z,8.33
2022-12-08T21:39:03.095Z,8.46
2022-12-08T21:41:49.023Z,8.44
2022-12-08T21:44:20.254Z,8.53
2022-12-08T21:46:47.475Z,8.50
2022-12-08T21:49:14.523Z,8.56
2022-12-08T21:51:42.523Z,8.59
2022-12-08T21:54:18.306Z,8.70
2022-12-08T21:56:46.907Z,8.59
2022-12-08T21:59:13.887Z,8.79
2022-12-08T22:01:43.565Z,8.83
2022-12-08T22:04:12.540Z,8.80
2022-12-08T22:06:39.987Z,8.86
2022-12-08T22:09:07.470Z,8.80
2022-12-08T22:11:34.752Z,8.84
2022-12-08T22:14:01.974Z,8.79
2022-12-08T22:16:28.973Z,8.79
2022-12-08T22:18:56.110Z,8.65
2022-12-08T22:21:23.524Z,8.62
2022-12-08T22:23:50.477Z,8.76
2022-12-08T22:26:17.545Z,8.72
2022-12-08T22:28:44.909Z,8.76
2022-12-08T22:33:32.868Z,8.69
2022-12-08T22:36:08.141Z,8.72
2022-12-08T22:38:37.482Z,8.69
2022-12-08T22:41:06.102Z,8.69
2022-12-08T22:43:34.036Z,8.67
2022-12-08T22:46:01.362Z,8.67
2022-12-08T22:48:28.393Z,8.67
2022-12-08T22:51:00.438Z,8.55
2022-12-08T22:53:27.986Z,8.62
2022-12-08T22:55:55.247Z,8.61
2022-12-08T22:58:23.138Z,8.67
2022-12-08T23:00:50.675Z,8.59
2022-12-08T23:03:18.038Z,8.61
2022-12-08T23:05:45.265Z,8.65
2022-12-08T23:08:15.986Z,8.62
2022-12-08T23:10:44.344Z,8.66
2022-12-08T23:13:12.532Z,8.66
2022-12-08T23:15:40.915Z,8.65
2022-12-08T23:18:08.587Z,8.62
2022-12-08T23:20:36.143Z,8.64
2022-12-08T23:23:03.208Z,8.72
2022-12-08T23:25:30.369Z,8.68
2022-12-08T23:27:57.465Z,8.77
2022-12-08T23:30:26.155Z,8.75
2022-12-08T23:32:56.786Z,8.75
2022-12-08T23:35:23.854Z,8.78
2022-12-08T23:37:50.943Z,8.86
2022-12-08T23:40:17.933Z,8.79
2022-12-08T23:42:44.844Z,8.78
2022-12-08T23:45:12.126Z,8.79
2022-12-08T23:47:39.016Z,8.72
2022-12-08T23:50:07.763Z,8.69
2022-12-08T23:52:35.202Z,8.70
2022-12-08T23:55:02.261Z,8.58
2022-12-08T23:57:29.137Z,8.55
2022-12-08T23:59:56.233Z,8.62
